Time;durP1;ratioP1;P1;durP2;ratioP2;P2;SDS_P1;SDS_P2;PMS_P1;PMS_P2;Temp;Humidity;BMP_temperature;BMP_pressure;BME280_temperature;BME280_humidity;BME280_pressure;Samples;Min_cycle;Max_cycle;Signal;HPM_P1;HPM_P2
2021/07/19 00:01:10;;;;;;;7.70;5.63;;;;;;;19.40;66.49;102326.97;10525173;28;20043;-80
2021/07/19 00:06:11;;;;;;;14.30;6.57;;;;;;;19.27;66.48;102344.38;10543659;28;20035;-81
2021/07/19 00:11:13;;;;;;;7.20;6.50;;;;;;;18.47;66.90;102175.66;10527018;28;20390;-80
2021/07/19 00:16:13;;;;;;;11.93;5.78;;;;;;;19.25;66.33;102308.03;10511563;28;20039;-80
2021/07/19 00:21:14;;;;;;;6.80;6.05;;;;;;;19.28;66.56;102335.06;10524290;28;20390;-81
2021/07/19 00:26:15;;;;;;;10.88;5.35;;;;;;;19.13;66.67;102307.06;10523196;28;20110;-81
2021/07/19 00:31:15;;;;;;;5.97;5.47;;;;;;;19.23;66.91;102331.28;10523656;28;20052;-81
2021/07/19 00:36:17;;;;;;;9.00;5.47;;;;;;;18.15;66.83;102166.53;10524452;28;20038;-81
2021/07/19 00:41:19;;;;;;;8.80;5.40;;;;;;;18.25;66.78;102202.56;10524930;28;20032;-81
2021/07/19 00:46:20;;;;;;;7.25;5.70;;;;;;;19.09;66.76;102327.78;10522102;28;20040;-84
2021/07/19 00:51:21;;;;;;;6.57;6.00;;;;;;;19.00;66.84;102321.72;10505512;28;20059;-81
2021/07/19 00:56:22;;;;;;;7.05;6.35;;;;;;;18.95;66.42;102331.66;10522992;28;20044;-81
2021/07/19 01:01:26;;;;;;;9.82;7.07;;;;;;;18.79;67.91;102341.22;10522067;28;20100;-80
2021/07/19 01:06:29;;;;;;;11.30;7.10;;;;;;;18.72;67.00;102330.28;10522854;28;20468;-80
2021/07/19 01:11:30;;;;;;;7.47;6.22;;;;;;;18.66;68.51;102336.59;10541196;28;20046;-81
2021/07/19 01:16:32;;;;;;;9.48;5.78;;;;;;;18.66;68.04;102336.59;10522014;28;20032;-80
2021/07/19 01:22:00;;;;;;;12.98;6.93;;;;;;;18.33;66.72;102263.50;10537735;28;20096;-80
2021/07/19 01:27:38;;;;;;;8.20;6.32;;;;;;;18.68;66.07;102331.75;10511426;28;20044;-80
2021/07/19 01:32:47;;;;;;;7.53;6.65;;;;;;;18.64;67.08;102355.19;10526896;28;20112;-81
2021/07/19 01:37:48;;;;;;;6.88;6.18;;;;;;;18.64;67.49;102330.50;10509559;28;20028;-80
2021/07/19 01:42:48;;;;;;;7.70;4.97;;;;;;;18.56;67.54;102327.97;10526461;28;20114;-81
2021/07/19 01:47:49;;;;;;;13.77;6.47;;;;;;;18.46;68.25;102317.47;10515748;28;20031;-81
2021/07/19 01:52:50;;;;;;;8.30;6.68;;;;;;;17.37;68.12;102137.22;10518603;28;20062;-81
2021/07/19 01:57:50;;;;;;;11.48;6.03;;;;;;;18.46;67.64;102319.38;10498871;28;20031;-81
2021/07/19 02:02:51;;;;;;;10.65;5.65;;;;;;;17.57;67.52;102181.81;10484954;28;20063;-81
2021/07/19 02:07:55;;;;;;;7.72;5.32;;;;;;;18.32;67.55;102313.91;10501143;28;20036;-81
2021/07/19 02:12:56;;;;;;;9.27;6.55;;;;;;;18.19;68.29;102300.25;10483813;28;20029;-81
2021/07/19 02:17:57;;;;;;;6.10;5.50;;;;;;;17.49;68.42;102194.91;10499507;28;20029;-80
2021/07/19 02:23:02;;;;;;;6.20;5.55;;;;;;;18.13;68.24;102312.91;10482893;28;20036;-81
2021/07/19 02:28:03;;;;;;;8.38;5.38;;;;;;;18.14;67.96;102308.25;10498493;28;20051;-80
2021/07/19 02:33:04;;;;;;;7.93;6.88;;;;;;;18.13;68.26;102317.53;10495300;28;20035;-79
2021/07/19 02:38:06;;;;;;;9.85;4.55;;;;;;;18.13;68.08;102323.88;10478945;28;20036;-80
2021/07/19 02:43:07;;;;;;;13.15;5.85;;;;;;;18.08;67.99;102323.66;10494097;28;20106;-81
2021/07/19 02:48:12;;;;;;;12.02;6.38;;;;;;;17.86;69.36;102347.69;10463010;28;20093;-80
2021/07/19 02:53:14;;;;;;;7.78;6.97;;;;;;;17.19;68.92;102195.31;10476912;28;20158;-81
2021/07/19 02:58:15;;;;;;;12.57;6.93;;;;;;;17.34;68.48;102301.91;10476393;28;20052;-81
2021/07/19 03:03:25;;;;;;;12.63;5.72;;;;;;;17.95;67.31;102325.56;10493509;28;20400;-80
2021/07/19 03:08:29;;;;;;;13.13;5.93;;;;;;;17.12;68.36;102184.38;10457575;28;20485;-80
2021/07/19 03:13:30;;;;;;;17.27;6.55;;;;;;;17.90;68.19;102345.41;10491655;28;20044;-81
2021/07/19 03:18:32;;;;;;;7.00;6.30;;;;;;;17.36;67.99;102254.09;10491144;28;20064;-81
2021/07/19 03:23:36;;;;;;;5.32;4.63;;;;;;;17.82;68.29;102330.00;10475734;28;20032;-80
2021/07/19 03:28:39;;;;;;;9.82;5.85;;;;;;;17.83;68.12;102334.41;10472712;28;20414;-81
2021/07/19 03:33:42;;;;;;;7.43;6.13;;;;;;;17.92;67.74;102326.00;10487931;28;20085;-80
2021/07/19 03:38:43;;;;;;;18.83;6.18;;;;;;;17.92;67.84;102342.44;10471259;28;20086;-80
2021/07/19 03:43:44;;;;;;;19.42;6.32;;;;;;;17.89;68.13;102322.63;10487437;28;20325;-80
2021/07/19 03:48:46;;;;;;;6.90;6.30;;;;;;;17.91;67.87;102344.34;10487788;28;20032;-80
2021/07/19 03:53:47;;;;;;;10.45;6.32;;;;;;;15.48;67.86;101952.25;10454038;28;20136;-80
2021/07/19 03:58:47;;;;;;;9.73;7.20;;;;;;;17.58;67.51;102278.53;10513033;28;20413;-81
2021/07/19 04:03:52;;;;;;;13.82;7.18;;;;;;;16.93;68.63;102161.41;10490313;28;20110;-81
2021/07/19 04:08:55;;;;;;;14.18;6.90;;;;;;;17.95;68.48;102331.91;10540978;28;20144;-79
2021/07/19 04:14:01;;;;;;;17.50;8.15;;;;;;;18.00;68.26;102334.00;10528957;28;20036;-80
2021/07/19 04:19:05;;;;;;;10.05;6.70;;;;;;;18.11;69.06;102375.31;10508574;28;20108;-80
2021/07/19 04:24:06;;;;;;;8.15;5.78;;;;;;;17.18;68.90;102174.50;10504640;28;20186;-79
2021/07/19 04:29:07;;;;;;;5.90;4.82;;;;;;;18.45;68.37;102318.53;10504081;28;20107;-82
2021/07/19 04:34:08;;;;;;;6.95;5.00;;;;;;;18.50;68.17;102329.69;10502511;28;20497;-80
2021/07/19 04:39:11;;;;;;;7.78;5.78;;;;;;;18.38;67.61;102289.41;10519006;28;20114;-81
2021/07/19 04:44:12;;;;;;;9.15;5.55;;;;;;;18.33;67.75;102265.41;10523919;28;20089;-81
2021/07/19 04:49:16;;;;;;;17.60;5.97;;;;;;;18.62;67.38;102326.28;10505753;28;20028;-81
2021/07/19 04:54:22;;;;;;;11.55;6.72;;;;;;;17.61;67.22;102160.31;10463806;28;20138;-80
2021/07/19 04:59:25;;;;;;;9.00;5.77;;;;;;;18.63;67.60;102327.94;10496967;28;20117;-80
2021/07/19 05:04:29;;;;;;;7.07;5.47;;;;;;;16.22;67.23;101896.75;10484494;28;20052;-81
2021/07/19 05:09:32;;;;;;;15.65;5.22;;;;;;;19.28;67.03;102320.50;10483784;28;20479;-82
2021/07/19 05:14:42;;;;;;;12.77;6.88;;;;;;;19.50;66.34;102313.59;10471376;28;20045;-79
2021/07/19 05:19:43;;;;;;;13.00;7.97;;;;;;;20.00;65.34;102278.94;10506971;28;20033;-79
2021/07/19 05:24:48;;;;;;;9.20;5.72;;;;;;;20.97;64.19;102312.97;10490785;28;20052;-80
2021/07/19 05:29:50;;;;;;;8.55;5.95;;;;;;;20.53;64.33;102294.88;10489784;28;20055;-81
2021/07/19 05:34:51;;;;;;;7.57;5.97;;;;;;;19.72;63.64;102129.94;10502679;28;20037;-80
2021/07/19 05:39:54;;;;;;;11.25;7.32;;;;;;;22.63;60.52;102262.41;10467168;28;20028;-80
2021/07/19 05:44:55;;;;;;;5.00;4.60;;;;;;;23.06;59.17;102241.69;10482134;28;20032;-80
2021/07/19 05:49:56;;;;;;;8.07;4.30;;;;;;;23.69;58.10;102287.59;10496422;28;20434;-80
2021/07/19 05:54:56;;;;;;;10.30;3.83;;;;;;;23.40;56.96;102315.28;10478767;28;20036;-81
2021/07/19 05:59:57;;;;;;;8.05;5.25;;;;;;;23.78;56.95;102310.97;10483447;28;20035;-80
2021/07/19 06:04:58;;;;;;;8.98;4.78;;;;;;;23.36;57.57;102294.75;10468130;28;20474;-81
2021/07/19 06:09:58;;;;;;;15.93;5.20;;;;;;;23.70;58.75;102307.78;10504194;28;20032;-80
2021/07/19 06:14:59;;;;;;;6.07;4.30;;;;;;;24.26;56.53;102292.88;10500359;28;20391;-81
2021/07/19 06:20:00;;;;;;;3.97;3.67;;;;;;;24.41;56.24;102316.31;10484784;28;20441;-81
2021/07/19 06:25:01;;;;;;;5.35;4.60;;;;;;;24.49;55.76;102264.13;10499066;28;20404;-81
2021/07/19 06:30:06;;;;;;;4.57;4.20;;;;;;;24.52;54.13;102269.16;10517782;28;20033;-81
2021/07/19 06:35:08;;;;;;;9.70;5.75;;;;;;;26.08;53.72;102324.78;10505537;28;20036;-81
2021/07/19 06:40:09;;;;;;;14.40;4.25;;;;;;;26.46;53.02;102216.38;10500802;28;20525;-80
2021/07/19 06:45:13;;;;;;;4.50;4.07;;;;;;;26.56;50.72;102322.00;10483011;28;20115;-81
2021/07/19 06:50:14;;;;;;;9.25;5.50;;;;;;;27.42;50.21;102327.00;10481816;28;20063;-81
2021/07/19 06:55:14;;;;;;;5.30;4.80;;;;;;;27.68;48.23;102325.06;10466697;28;20404;-80
2021/07/19 07:00:15;;;;;;;7.35;4.57;;;;;;;27.86;49.18;102343.19;10500398;28;20544;-80
2021/07/19 07:05:15;;;;;;;5.53;4.55;;;;;;;28.56;47.68;102306.25;10498889;28;20452;-81
2021/07/19 07:10:16;;;;;;;5.63;4.95;;;;;;;28.37;47.41;102331.13;10500626;28;20032;-83
2021/07/19 07:15:19;;;;;;;7.00;5.22;;;;;;;28.72;46.65;102333.81;10466518;28;20392;-81
2021/07/19 07:20:19;;;;;;;10.70;4.80;;;;;;;29.28;46.68;102335.47;10499385;28;20048;-80
2021/07/19 07:25:20;;;;;;;4.03;3.72;;;;;;;28.42;45.22;102270.66;10466276;28;20389;-81
2021/07/19 07:30:20;;;;;;;7.47;4.20;;;;;;;27.46;46.21;102318.94;10482311;28;20048;-81
2021/07/19 07:35:21;;;;;;;4.93;3.28;;;;;;;25.71;48.31;102206.25;10503430;28;20060;-82
2021/07/19 07:40:24;;;;;;;4.70;3.72;;;;;;;25.96;48.51;102290.81;10507177;28;20115;-82
2021/07/19 07:45:25;;;;;;;4.47;3.83;;;;;;;25.99;49.42;102343.03;10508520;28;20432;-81
2021/07/19 07:50:25;;;;;;;4.05;3.10;;;;;;;27.56;47.48;102330.06;10506336;28;20052;-79
2021/07/19 07:55:26;;;;;;;7.85;3.55;;;;;;;28.00;46.12;102335.09;10490346;28;20044;-81
2021/07/19 08:00:26;;;;;;;6.03;4.10;;;;;;;27.46;46.32;102316.97;10490194;28;20106;-83
2021/07/19 08:05:27;;;;;;;12.77;4.63;;;;;;;28.00;46.87;102332.31;10488469;28;20083;-81
2021/07/19 08:10:27;;;;;;;10.10;4.63;;;;;;;28.97;45.80;102332.84;10489079;28;20045;-80
2021/07/19 08:15:28;;;;;;;4.72;3.55;;;;;;;29.56;44.79;102328.28;10505569;28;20488;-82
2021/07/19 08:20:29;;;;;;;4.57;2.95;;;;;;;29.67;42.37;102303.91;10508870;28;20037;-82
2021/07/19 08:25:30;;;;;;;3.70;3.15;;;;;;;28.72;43.77;102325.44;10506002;28;20426;-82
2021/07/19 08:30:31;;;;;;;3.25;3.03;;;;;;;28.86;43.48;102347.94;10506980;28;20132;-82
2021/07/19 08:35:31;;;;;;;5.47;2.67;;;;;;;29.03;42.46;102318.88;10492146;28;20036;-81
2021/07/19 08:40:33;;;;;;;5.45;3.13;;;;;;;29.47;41.75;102324.44;10489163;28;20059;-81
2021/07/19 08:45:33;;;;;;;5.05;3.80;;;;;;;29.86;40.46;102321.59;10507178;28;20040;-82
2021/07/19 08:50:34;;;;;;;3.70;3.42;;;;;;;30.99;40.82;102312.78;10521429;28;20076;-81
2021/07/19 08:55:34;;;;;;;3.75;3.42;;;;;;;31.01;40.59;102212.56;10526308;28;20037;-81
2021/07/19 09:00:35;;;;;;;5.18;4.75;;;;;;;30.84;38.65;102265.44;10488359;28;20028;-81
2021/07/19 09:05:37;;;;;;;4.78;4.38;;;;;;;30.10;42.13;102304.91;10506131;28;20039;-82
2021/07/19 09:10:37;;;;;;;3.90;3.47;;;;;;;30.64;39.65;102288.91;10487440;28;20149;-83
2021/07/19 09:15:38;;;;;;;3.47;3.20;;;;;;;30.57;39.77;102258.53;10503590;28;20028;-82
2021/07/19 09:20:40;;;;;;;11.50;3.88;;;;;;;30.22;40.19;102312.91;10504210;28;20029;-82
2021/07/19 09:25:40;;;;;;;4.45;4.00;;;;;;;29.56;42.17;102311.53;10472183;28;20036;-81
2021/07/19 09:30:43;;;;;;;5.80;4.15;;;;;;;29.57;42.53;102317.94;10470184;28;20456;-82
2021/07/19 09:35:46;;;;;;;3.70;3.42;;;;;;;28.83;43.70;102291.94;10502941;28;20468;-83
2021/07/19 09:40:48;;;;;;;8.93;4.57;;;;;;;28.05;47.67;102335.09;10486449;28;20036;-82
2021/07/19 09:46:09;;;;;;;6.78;4.25;;;;;;;28.27;49.27;102306.88;10503278;28;20037;-82
2021/07/19 09:51:09;;;;;;;6.63;4.50;;;;;;;28.45;44.94;102303.53;10502260;28;20044;-82
2021/07/19 09:56:20;;;;;;;4.50;4.10;;;;;;;28.23;47.25;102286.28;10486714;28;20032;-82
2021/07/19 10:01:31;;;;;;;13.13;4.43;;;;;;;28.15;47.48;102270.19;10507717;28;20084;-82
2021/07/19 10:06:32;;;;;;;6.80;5.80;;;;;;;27.70;51.00;102308.09;10493654;28;20032;-82
2021/07/19 10:11:34;;;;;;;6.80;4.53;;;;;;;27.13;45.14;102285.81;10502869;28;20024;-79
2021/07/19 10:16:35;;;;;;;11.27;5.95;;;;;;;27.56;46.23;102294.72;10543055;28;20402;-80
2021/07/19 10:21:36;;;;;;;4.63;4.13;;;;;;;29.14;43.41;102259.97;10505425;28;20031;-80
2021/07/19 10:26:36;;;;;;;6.57;4.38;;;;;;;30.81;41.20;102274.44;10516313;28;20044;-78
2021/07/19 10:31:37;;;;;;;7.45;5.57;;;;;;;31.28;41.51;102289.41;10520310;28;20044;-79
2021/07/19 10:36:39;;;;;;;10.32;5.60;;;;;;;30.47;41.64;102294.16;10537344;28;20494;-80
2021/07/19 10:41:41;;;;;;;8.35;4.47;;;;;;;29.93;40.79;102276.59;10520415;28;20036;-82
2021/07/19 10:46:42;;;;;;;7.45;4.40;;;;;;;30.80;40.35;102279.22;10519382;28;20111;-75
2021/07/19 10:51:49;;;;;;;6.68;6.05;;;;;;;32.24;42.39;102273.97;10522756;28;20057;-75
2021/07/19 10:56:51;;;;;;;5.35;4.68;;;;;;;33.14;37.05;102255.44;10518999;28;20036;-76
2021/07/19 11:01:53;;;;;;;6.63;4.75;;;;;;;34.11;36.47;102258.53;10536672;28;20036;-75
2021/07/19 11:06:57;;;;;;;5.13;4.38;;;;;;;34.31;36.59;102247.84;10518535;28;20100;-76
2021/07/19 11:12:04;;;;;;;5.50;5.10;;;;;;;31.85;42.15;102219.25;10513311;28;20040;-76
2021/07/19 11:17:08;;;;;;;8.52;5.25;;;;;;;30.69;39.46;102135.03;10528829;28;20054;-75
2021/07/19 11:22:13;;;;;;;18.27;5.43;;;;;;;31.18;38.64;102250.38;10526833;28;20435;-77
2021/07/19 11:27:18;;;;;;;4.82;4.40;;;;;;;31.86;40.58;102246.94;10525450;28;20032;-75
2021/07/19 11:32:23;;;;;;;8.85;4.05;;;;;;;31.65;38.95;102210.09;10541864;28;20044;-78
2021/07/19 11:37:34;;;;;;;4.22;3.83;;;;;;;32.45;38.05;102229.53;10524136;28;20036;-79
2021/07/19 11:42:42;;;;;;;5.72;4.55;;;;;;;32.17;37.26;102238.78;10525916;28;20439;-78
2021/07/19 11:47:47;;;;;;;4.13;3.78;;;;;;;30.13;41.70;102219.66;10526044;28;20024;-78
2021/07/19 11:52:48;;;;;;;9.32;5.35;;;;;;;31.24;37.75;102230.41;10485170;28;20118;-78
2021/07/19 11:57:51;;;;;;;6.90;4.90;;;;;;;31.15;36.93;102022.38;10523318;28;20035;-77
2021/07/19 12:02:59;;;;;;;4.38;4.00;;;;;;;32.81;41.40;102223.97;10522206;28;20111;-79
2021/07/19 12:08:04;;;;;;;9.02;3.92;;;;;;;32.60;37.00;102184.31;10523038;28;20113;-78
2021/07/19 12:13:12;;;;;;;5.68;5.28;;;;;;;33.66;38.58;102212.84;10542193;28;20110;-78
2021/07/19 12:18:13;;;;;;;8.25;4.82;;;;;;;33.61;36.13;102213.00;10523614;28;20028;-78
2021/07/19 12:23:13;;;;;;;4.28;3.97;;;;;;;34.03;35.49;102209.56;10506341;28;20067;-80
2021/07/19 12:28:16;;;;;;;17.60;5.18;;;;;;;33.82;35.59;102205.63;10543297;28;20591;-79
2021/07/19 12:33:22;;;;;;;8.13;3.53;;;;;;;33.20;38.50;102174.75;10520810;28;20044;-77
2021/07/19 12:38:23;;;;;;;5.20;4.65;;;;;;;33.83;36.69;102172.78;10540435;28;20032;-78
2021/07/19 12:43:24;;;;;;;5.05;4.57;;;;;;;34.16;42.33;102207.78;10521771;28;20637;-78
2021/07/19 12:48:24;;;;;;;5.80;5.22;;;;;;;34.58;36.72;102196.94;10540352;28;20040;-79
2021/07/19 12:53:25;;;;;;;6.22;4.07;;;;;;;34.12;44.03;102177.84;10541440;28;20376;-78
2021/07/19 12:58:25;;;;;;;7.03;4.03;;;;;;;34.07;36.56;102189.22;10489863;28;20036;-78
2021/07/19 13:03:28;;;;;;;7.22;3.90;;;;;;;33.34;37.57;102187.56;10539985;28;20040;-78
2021/07/19 13:08:29;;;;;;;4.85;4.20;;;;;;;33.14;36.48;102181.63;10520520;28;20036;-78
2021/07/19 13:13:30;;;;;;;3.42;3.22;;;;;;;33.00;37.36;102184.53;10521466;28;20032;-78
2021/07/19 13:18:32;;;;;;;12.52;4.05;;;;;;;33.56;36.67;102178.25;10541052;28;20112;-81
2021/07/19 13:23:37;;;;;;;4.68;3.50;;;;;;;32.91;38.18;102183.59;10522408;28;20032;-79
2021/07/19 13:28:38;;;;;;;4.82;4.30;;;;;;;33.30;36.32;102171.66;10542499;28;20146;-79
2021/07/19 13:33:45;;;;;;;10.98;4.80;;;;;;;33.25;37.40;102181.06;10525055;28;20119;-78
2021/07/19 13:38:47;;;;;;;5.43;4.18;;;;;;;32.71;37.57;102128.84;10521135;28;20059;-79
2021/07/19 13:43:47;;;;;;;8.55;4.32;;;;;;;32.76;37.81;102128.69;10520751;28;20085;-79
2021/07/19 13:48:48;;;;;;;5.35;4.30;;;;;;;33.07;36.69;102173.66;10502707;28;20479;-78
2021/07/19 13:53:48;;;;;;;6.25;4.68;;;;;;;32.96;36.63;102181.50;10516238;28;20064;-79
2021/07/19 14:04:45;;;;;;;4.10;3.35;;;;;;;33.67;36.59;102178.81;10802131;22;20144;-79
2021/07/19 14:09:46;;;;;;;6.60;5.30;;;;;;;33.58;37.37;102174.31;10404809;28;20124;-79
2021/07/19 14:15:05;;;;;;;17.73;4.53;;;;;;;32.77;37.43;102147.16;10421267;28;20103;-78
2021/07/19 14:20:06;;;;;;;5.53;4.50;;;;;;;32.49;37.01;102172.53;10454924;28;20025;-80
2021/07/19 14:25:10;;;;;;;5.85;5.40;;;;;;;32.57;42.25;102168.97;10396460;28;20102;-79
2021/07/19 14:30:16;;;;;;;7.05;3.88;;;;;;;32.71;37.12;102148.47;10399122;28;20067;-80
2021/07/19 14:35:18;;;;;;;5.77;5.10;;;;;;;32.60;36.77;102157.09;10389966;28;20107;-84
2021/07/19 14:40:29;;;;;;;6.15;4.60;;;;;;;33.11;39.72;102164.28;10426458;28;20072;-84
2021/07/19 14:45:59;;;;;;;9.82;5.57;;;;;;;33.20;40.84;102160.72;10438049;28;20039;-85
2021/07/19 14:51:01;;;;;;;5.85;4.95;;;;;;;32.53;44.45;102162.31;10441044;28;20036;-84
2021/07/19 14:56:10;;;;;;;13.30;4.85;;;;;;;32.14;39.07;102160.94;10447820;28;20037;-85
2021/07/19 15:01:35;;;;;;;6.78;3.78;;;;;;;31.68;41.96;102105.84;10455561;28;20455;-84
2021/07/19 15:06:37;;;;;;;15.38;5.63;;;;;;;31.86;38.68;102120.88;10459710;28;20052;-84
2021/07/19 15:11:47;;;;;;;19.58;5.65;;;;;;;31.80;39.63;102121.31;10445963;28;20111;-84
2021/07/19 15:16:56;;;;;;;5.28;4.88;;;;;;;32.01;38.36;102139.38;10496147;28;20395;-84
2021/07/19 15:22:00;;;;;;;7.40;5.05;;;;;;;32.68;37.12;102137.88;10462452;28;20051;-85
2021/07/19 15:32:42;;;;;;;8.27;5.65;;;;;;;30.99;39.32;102065.78;10426639;28;20044;-84
2021/07/19 15:37:56;;;;;;;10.23;6.18;;;;;;;31.01;41.22;102134.25;10418058;28;20048;-85
2021/07/19 15:43:04;;;;;;;5.53;5.03;;;;;;;30.29;40.93;102137.31;10386398;28;20078;-84
2021/07/19 15:48:10;;;;;;;4.45;4.10;;;;;;;28.42;42.91;102050.53;10434744;28;20045;-84
2021/07/19 15:53:17;;;;;;;6.07;5.03;;;;;;;27.74;47.02;102144.97;10419164;28;20083;-84
2021/07/19 15:58:21;;;;;;;6.95;5.28;;;;;;;25.19;47.13;101906.78;10485990;28;20024;-84
2021/07/19 16:03:23;;;;;;;17.58;6.88;;;;;;;26.55;48.54;102098.94;10468375;28;20496;-83
2021/07/19 16:08:26;;;;;;;9.43;5.82;;;;;;;26.90;46.09;102108.38;10475439;28;20125;-83
2021/07/19 16:13:30;;;;;;;9.60;5.53;;;;;;;26.37;45.62;102016.09;10505103;28;20039;-83
2021/07/19 16:18:31;;;;;;;8.13;5.47;;;;;;;26.65;46.32;102135.06;10486096;28;20033;-83
2021/07/19 16:23:38;;;;;;;17.67;5.38;;;;;;;25.86;46.30;101950.25;10452199;28;20098;-84
2021/07/19 16:28:39;;;;;;;9.77;6.25;;;;;;;26.58;45.60;102106.72;10468409;28;20087;-83
2021/07/19 16:33:55;;;;;;;17.02;5.97;;;;;;;25.38;49.28;102115.06;10468438;28;20436;-83
2021/07/19 16:38:56;;;;;;;9.40;5.97;;;;;;;25.68;48.06;102126.34;10484606;28;20068;-83
2021/07/19 16:44:20;;;;;;;12.65;7.53;;;;;;;25.63;51.85;102125.50;10451388;28;20472;-82
2021/07/19 16:49:31;;;;;;;6.43;5.00;;;;;;;25.38;48.71;102062.41;10484881;28;20098;-83
2021/07/19 16:54:40;;;;;;;13.25;6.57;;;;;;;25.19;49.84;102084.19;10467784;28;20036;-83
2021/07/19 16:59:59;;;;;;;11.23;6.22;;;;;;;25.60;48.23;102118.53;10483713;28;20511;-83
2021/07/19 17:05:29;;;;;;;14.85;7.35;;;;;;;24.98;49.94;102100.66;10494173;28;20063;-82
2021/07/19 17:10:57;;;;;;;11.05;8.27;;;;;;;24.49;52.18;102117.38;10442575;28;20037;-83
2021/07/19 17:16:00;;;;;;;6.22;5.63;;;;;;;24.82;48.33;102113.53;10355682;28;20213;-83
2021/07/19 17:21:07;;;;;;;6.10;5.47;;;;;;;24.87;49.71;102109.97;10377976;28;20053;-82
2021/07/19 17:26:08;;;;;;;10.52;6.70;;;;;;;24.18;50.16;102098.72;10358657;28;20069;-83
2021/07/19 17:31:16;;;;;;;6.55;5.45;;;;;;;24.14;50.17;102110.31;10356269;28;20048;-82
2021/07/19 17:36:16;;;;;;;6.40;5.82;;;;;;;23.15;48.85;101994.28;10355190;28;20084;-83
2021/07/19 17:41:20;;;;;;;10.38;5.80;;;;;;;23.82;49.43;102112.97;10372011;28;20133;-82
2021/07/19 17:46:21;;;;;;;9.90;6.25;;;;;;;23.83;49.06;102122.09;10438065;28;20480;-83
2021/07/19 17:51:22;;;;;;;7.90;5.78;;;;;;;23.72;49.83;102103.72;10506829;28;20115;-82
2021/07/19 17:56:27;;;;;;;5.88;5.25;;;;;;;23.54;48.52;102138.81;10489893;28;20028;-83
2021/07/19 18:01:31;;;;;;;11.07;5.47;;;;;;;23.49;50.02;102136.00;10481816;28;20064;-83
2021/07/19 18:06:32;;;;;;;5.93;5.32;;;;;;;23.17;48.38;102064.78;10463689;28;20053;-82
2021/07/19 18:11:34;;;;;;;6.82;5.25;;;;;;;22.99;48.56;102076.09;10448007;28;20035;-83
2021/07/19 18:16:43;;;;;;;7.93;5.57;;;;;;;23.15;49.78;102115.84;10480893;28;20040;-81
2021/07/19 18:21:52;;;;;;;8.10;6.00;;;;;;;22.62;49.27;102084.88;10481750;28;20025;-82
2021/07/19 18:32:00;;;;;;;15.23;6.65;;;;;;;22.66;50.92;102121.09;10496901;28;20036;-83
2021/07/19 18:37:03;;;;;;;6.63;5.50;;;;;;;22.34;49.65;102112.50;10465400;28;20090;-82
2021/07/19 18:42:05;;;;;;;9.98;6.13;;;;;;;22.39;49.26;102132.72;10447264;28;20495;-83
2021/07/19 18:47:06;;;;;;;17.02;6.45;;;;;;;22.19;52.25;102126.81;10480243;28;20059;-81
2021/07/19 18:52:07;;;;;;;8.90;5.50;;;;;;;21.84;49.25;102094.63;10462689;28;20040;-80
2021/07/19 18:57:07;;;;;;;12.23;6.63;;;;;;;22.01;49.45;102122.28;10446493;28;20040;-80
2021/07/19 19:02:31;;;;;;;13.48;6.28;;;;;;;21.64;53.03;102084.03;10479326;28;20040;-80
2021/07/19 19:07:32;;;;;;;7.00;5.75;;;;;;;21.78;50.53;102125.94;10405115;28;20069;-80
2021/07/19 19:12:33;;;;;;;7.85;6.18;;;;;;;21.62;51.77;102121.19;10377283;28;20489;-80
2021/07/19 19:17:34;;;;;;;8.18;6.80;;;;;;;21.18;52.05;102073.84;10361102;28;20439;-82
2021/07/19 19:22:36;;;;;;;6.45;5.75;;;;;;;21.39;51.75;102133.06;10393673;28;20141;-82
2021/07/19 19:27:37;;;;;;;8.57;5.75;;;;;;;21.40;52.00;102124.53;10393262;28;20120;-80
2021/07/19 19:32:56;;;;;;;8.55;4.97;;;;;;;21.15;53.85;102121.97;10381909;28;20041;-83
2021/07/19 19:37:58;;;;;;;11.73;5.57;;;;;;;21.00;53.79;102129.91;10403444;28;20052;-82
2021/07/19 19:43:01;;;;;;;22.70;5.72;;;;;;;20.84;53.75;102128.66;10487836;28;20044;-84
2021/07/19 19:48:07;;;;;;;6.22;5.47;;;;;;;20.79;53.77;102139.53;10493898;28;20025;-84
2021/07/19 19:53:08;;;;;;;8.82;5.25;;;;;;;19.54;53.45;101973.28;10481851;28;20029;-84
2021/07/19 19:58:09;;;;;;;10.52;5.50;;;;;;;20.45;54.24;102144.66;10454112;28;20048;-84
2021/07/19 20:03:11;;;;;;;16.08;6.00;;;;;;;20.41;53.52;102138.78;10468628;28;20047;-84
2021/07/19 20:08:12;;;;;;;13.27;4.50;;;;;;;20.24;53.22;102126.75;10485641;28;20106;-82
2021/07/19 20:13:20;;;;;;;13.27;5.85;;;;;;;19.81;55.07;102082.88;10469805;28;20083;-83
2021/07/19 20:18:22;;;;;;;6.20;5.22;;;;;;;20.05;54.86;102145.19;10485985;28;20031;-82
2021/07/19 20:23:23;;;;;;;11.13;5.57;;;;;;;20.03;53.79;102150.06;10503197;28;20149;-85
2021/07/19 20:28:30;;;;;;;12.20;5.40;;;;;;;17.36;54.37;101719.38;10485981;28;20483;-85
2021/07/19 20:33:36;;;;;;;6.07;5.43;;;;;;;19.78;55.17;102149.31;10485136;28;20387;-83
2021/07/19 20:38:52;;;;;;;11.88;6.28;;;;;;;19.49;55.62;102108.56;10469137;28;20032;-82
2021/07/19 20:43:55;;;;;;;6.78;4.75;;;;;;;18.47;54.43;101964.47;10484622;28;20029;-81
2021/07/19 20:49:25;;;;;;;11.13;5.03;;;;;;;19.60;54.50;102164.69;10501070;28;20029;-82
2021/07/19 20:54:34;;;;;;;8.57;5.28;;;;;;;19.42;55.93;102161.91;10456559;28;20497;-83
2021/07/19 20:59:37;;;;;;;17.70;6.97;;;;;;;19.20;55.06;102110.13;10442568;28;20083;-81
2021/07/19 21:04:43;;;;;;;6.15;5.18;;;;;;;18.43;56.49;102007.13;10457933;28;20117;-83
2021/07/19 21:09:43;;;;;;;7.97;6.00;;;;;;;19.28;55.91;102162.03;10455460;28;20102;-81
2021/07/19 21:14:46;;;;;;;12.15;6.78;;;;;;;19.18;57.68;102158.97;10422405;28;20041;-81
2021/07/19 21:19:48;;;;;;;10.85;5.88;;;;;;;19.07;57.01;102153.34;10421981;28;20041;-83
2021/07/19 21:24:50;;;;;;;7.30;6.03;;;;;;;18.88;56.79;102146.94;10471049;28;20059;-82
2021/07/19 21:29:51;;;;;;;9.43;6.60;;;;;;;18.87;57.59;102145.28;10499856;28;20392;-81
2021/07/19 21:34:52;;;;;;;11.43;6.60;;;;;;;17.16;57.11;101933.81;10481939;28;20061;-82
2021/07/19 21:39:54;;;;;;;9.13;6.22;;;;;;;18.56;56.73;102120.31;10482609;28;20040;-81
2021/07/19 21:44:55;;;;;;;9.63;7.05;;;;;;;18.79;56.73;102169.19;10482888;28;20068;-81
2021/07/19 21:49:56;;;;;;;9.23;6.85;;;;;;;18.19;57.91;102088.25;10465178;28;20472;-81
2021/07/19 21:54:57;;;;;;;17.27;7.28;;;;;;;18.20;57.38;102087.22;10497853;28;20093;-81
2021/07/19 21:59:59;;;;;;;8.55;5.80;;;;;;;18.51;57.98;102174.19;10439238;28;20039;-81
2021/07/19 22:05:01;;;;;;;6.55;5.68;;;;;;;18.50;57.90;102165.09;10439061;28;20045;-82
2021/07/19 22:10:05;;;;;;;18.35;7.68;;;;;;;18.38;57.92;102169.59;10440485;28;20112;-81
2021/07/19 22:15:13;;;;;;;8.77;6.78;;;;;;;18.37;58.46;102167.91;10430613;28;20036;-81
2021/07/19 22:20:18;;;;;;;13.30;7.28;;;;;;;18.03;58.43;102131.59;10453070;28;20419;-82
2021/07/19 22:25:20;;;;;;;18.92;7.25;;;;;;;18.30;58.08;102172.59;10441326;28;20373;-81
2021/07/19 22:30:22;;;;;;;11.82;7.43;;;;;;;17.90;58.92;102161.78;10456332;28;20045;-81
2021/07/19 22:35:24;;;;;;;14.73;6.53;;;;;;;18.28;58.33;102169.22;10438572;28;20423;-81
2021/07/19 22:40:25;;;;;;;7.22;6.53;;;;;;;18.18;58.71;102172.41;10439336;28;20057;-81
2021/07/19 22:45:33;;;;;;;15.50;7.88;;;;;;;17.93;60.11;102149.53;10438813;28;20056;-81
2021/07/19 22:50:35;;;;;;;11.10;7.53;;;;;;;18.09;59.30;102162.75;10455499;28;20033;-81
2021/07/19 22:55:39;;;;;;;14.32;7.68;;;;;;;18.08;58.99;102167.41;10438836;28;20040;-81
2021/07/19 23:00:47;;;;;;;10.52;7.65;;;;;;;17.91;60.06;102190.03;10438641;28;20040;-81
2021/07/19 23:05:49;;;;;;;12.55;6.35;;;;;;;16.87;59.47;101998.09;10437009;28;20140;-81
2021/07/19 23:10:50;;;;;;;13.43;6.97;;;;;;;17.10;58.70;102040.56;10454869;28;20075;-82
2021/07/19 23:15:51;;;;;;;12.88;7.78;;;;;;;17.85;59.18;102187.09;10422001;28;20128;-81
2021/07/19 23:20:54;;;;;;;13.05;7.38;;;;;;;17.78;59.44;102182.69;10454635;28;20033;-82
2021/07/19 23:25:54;;;;;;;9.90;7.53;;;;;;;17.65;59.02;102156.97;10421574;28;20458;-81